Cleves, Iowa
Current Conditions -  °F | °C
As of 2:15 AM on Sunday 21 Dec 2014 (Local Time) from KIFA Reporting Station
Light Snow Light Snow  
Wind Chill: 25°   Ceiling: 200
Heat Index: 33°   Visibility: 0.25mi
Dew Point: 32°   Wind: 9mph
Humidity: 97%   Direction: 140°SE
Pressure: 30.05"   Gusts: NA
Location:  42.5577°N, 93.0852°W
Report Text: KIFA 210815Z AUTO 14008KT 1/4SM -SN OVC002 01/00 A3005 RMK AO2 T00060002
Loading
Personal Weather Stations






























Interactive Weather Map New forecast layout! Learn more

10-Day Weather Forecast

Advertisements
Track Severe Weather on mobile